createdAt,value
2023-01-23T00:00:16.920Z,13.00
2023-01-23T00:03:05.485Z,13.10
2023-01-23T00:05:33.738Z,12.40
2023-01-23T00:08:01.569Z,13.30
2023-01-23T00:10:29.527Z,15.40
2023-01-23T00:12:59.388Z,17.50
2023-01-23T00:15:27.556Z,16.20
2023-01-23T00:17:58.673Z,18.20
2023-01-23T00:20:26.906Z,16.60
2023-01-23T00:22:55.370Z,18.30
2023-01-23T00:25:26.462Z,17.70
2023-01-23T00:27:57.935Z,22.00
2023-01-23T00:30:26.196Z,21.20
2023-01-23T00:32:54.121Z,20.40
2023-01-23T00:35:22.629Z,27.40
2023-01-23T00:37:51.373Z,25.70
2023-01-23T00:40:19.973Z,23.50
2023-01-23T00:42:48.311Z,30.80
2023-01-23T00:45:17.791Z,25.80
2023-01-23T00:47:46.522Z,36.00
2023-01-23T00:50:15.385Z,56.00
2023-01-23T00:52:43.543Z,40.40
2023-01-23T00:55:11.836Z,41.90
2023-01-23T00:57:39.871Z,89.40
2023-01-23T01:00:09.836Z,100.20
2023-01-23T01:02:38.217Z,50.00
2023-01-23T01:05:06.894Z,55.60
2023-01-23T01:07:35.089Z,48.10
2023-01-23T01:10:03.967Z,50.40
2023-01-23T01:12:32.031Z,35.60
2023-01-23T01:15:00.053Z,22.50
2023-01-23T01:17:28.017Z,22.10
2023-01-23T01:19:56.424Z,21.40
2023-01-23T01:22:24.301Z,29.00
2023-01-23T01:24:52.411Z,24.50
2023-01-23T01:27:24.677Z,31.60
2023-01-23T01:29:52.732Z,44.40
2023-01-23T01:32:21.026Z,83.90
2023-01-23T01:34:52.125Z,96.60
2023-01-23T01:37:22.525Z,136.30
2023-01-23T01:39:50.755Z,90.00
2023-01-23T01:42:18.847Z,51.10
2023-01-23T01:44:54.806Z,87.50
2023-01-23T01:47:24.789Z,55.30
2023-01-23T01:49:58.206Z,34.30
2023-01-23T01:52:28.212Z,62.50
2023-01-23T01:55:01.553Z,66.80
2023-01-23T01:57:34.644Z,29.00
2023-01-23T02:00:09.382Z,16.60
2023-01-23T02:03:03.863Z,19.90
2023-01-23T02:08:35.102Z,17.30
2023-01-23T02:11:03.600Z,16.10
2023-01-23T02:13:37.039Z,14.80
2023-01-23T02:16:10.845Z,14.60
2023-01-23T02:18:44.730Z,16.40
2023-01-23T02:21:15.673Z,15.30
2023-01-23T02:24:03.294Z,15.30
2023-01-23T02:26:37.818Z,16.80
2023-01-23T02:29:06.449Z,14.50
2023-01-23T02:31:43.841Z,15.10
2023-01-23T02:34:13.506Z,14.20
2023-01-23T02:36:46.203Z,19.80
2023-01-23T02:39:17.601Z,16.60
2023-01-23T02:41:50.544Z,13.80
2023-01-23T02:44:27.201Z,14.30
2023-01-23T02:47:02.487Z,16.40
2023-01-23T02:49:30.993Z,14.40
2023-01-23T02:52:00.174Z,13.80
2023-01-23T02:54:28.276Z,14.90
2023-01-23T02:56:57.208Z,15.50
2023-01-23T02:59:38.148Z,16.20
2023-01-23T03:02:06.299Z,15.40
2023-01-23T03:04:34.273Z,15.90
2023-01-23T03:07:02.633Z,16.70
2023-01-23T03:09:30.567Z,16.60
2023-01-23T03:11:58.479Z,19.60
2023-01-23T03:14:28.252Z,18.80
2023-01-23T03:16:56.193Z,18.50
2023-01-23T03:19:31.297Z,22.90
2023-01-23T03:21:59.782Z,19.20
2023-01-23T03:24:27.783Z,28.80
2023-01-23T03:26:55.848Z,129.40
2023-01-23T03:29:40.076Z,86.80
2023-01-23T03:32:09.464Z,65.10
2023-01-23T03:34:39.135Z,122.40
2023-01-23T03:37:08.069Z,15.60
2023-01-23T03:39:50.683Z,13.70
2023-01-23T03:42:19.311Z,12.70
2023-01-23T03:44:47.729Z,13.30
2023-01-23T03:47:20.633Z,16.60
2023-01-23T03:49:48.649Z,15.40
2023-01-23T03:52:16.572Z,14.90
2023-01-23T03:54:44.610Z,13.90
2023-01-23T03:57:12.489Z,15.50
2023-01-23T04:00:00.253Z,13.70
2023-01-23T04:02:41.731Z,13.10
2023-01-23T04:05:11.874Z,13.40
2023-01-23T04:07:40.237Z,14.30
2023-01-23T04:10:12.089Z,17.80
2023-01-23T04:12:43.914Z,16.40
2023-01-23T04:15:12.464Z,17.20
2023-01-23T04:17:42.325Z,16.40
2023-01-23T04:20:12.389Z,17.70
2023-01-23T04:22:41.941Z,18.30
2023-01-23T04:25:10.264Z,19.60
2023-01-23T04:27:38.530Z,18.80
2023-01-23T04:30:07.901Z,18.60
2023-01-23T04:32:36.255Z,19.80
2023-01-23T04:35:04.577Z,53.70
2023-01-23T04:37:32.722Z,77.50
2023-01-23T04:40:00.893Z,60.70
2023-01-23T04:42:29.978Z,30.80
2023-01-23T04:45:05.484Z,19.70
2023-01-23T04:47:53.301Z,17.90
2023-01-23T04:50:21.463Z,18.60
2023-01-23T04:52:49.771Z,15.20
2023-01-23T04:55:19.637Z,13.50
2023-01-23T04:57:48.170Z,13.00
2023-01-23T05:00:22.969Z,13.40
2023-01-23T05:02:51.606Z,13.80
2023-01-23T05:05:21.406Z,13.20
2023-01-23T05:07:52.120Z,15.00
2023-01-23T05:10:20.624Z,24.40
2023-01-23T05:12:49.358Z,14.00
2023-01-23T05:15:17.802Z,14.40
2023-01-23T05:17:46.401Z,11.10
2023-01-23T05:20:14.822Z,11.90
2023-01-23T05:22:52.842Z,11.70
2023-01-23T05:25:26.359Z,14.30
2023-01-23T05:27:55.791Z,13.40
2023-01-23T05:30:24.406Z,10.20
2023-01-23T05:32:54.993Z,12.60
2023-01-23T05:36:16.452Z,12.50
2023-01-23T05:39:43.147Z,12.00
2023-01-23T05:42:55.029Z,11.50
2023-01-23T05:46:34.770Z,10.90
2023-01-23T05:49:51.961Z,13.50
2023-01-23T05:53:03.773Z,13.10
2023-01-23T05:56:50.780Z,11.70
2023-01-23T06:00:11.875Z,9.50
2023-01-23T06:03:24.727Z,10.90
2023-01-23T06:06:35.749Z,9.30
2023-01-23T06:10:02.701Z,8.80
2023-01-23T06:13:46.811Z,10.50
2023-01-23T06:20:41.745Z,15.40
2023-01-23T06:24:01.729Z,9.70
2023-01-23T06:27:41.747Z,11.20
2023-01-23T06:30:47.068Z,11.50
2023-01-23T06:37:28.849Z,11.90
2023-01-23T06:40:45.771Z,15.30
2023-01-23T06:44:09.379Z,12.70
2023-01-23T06:47:20.547Z,9.80
2023-01-23T06:50:25.933Z,11.70
2023-01-23T06:53:40.719Z,11.20
2023-01-23T06:57:21.867Z,12.80
2023-01-23T07:00:54.809Z,11.70
2023-01-23T07:04:22.705Z,12.10
2023-01-23T07:12:03.845Z,14.90
2023-01-23T07:15:40.943Z,9.90
2023-01-23T07:19:14.942Z,10.70
2023-01-23T07:22:26.179Z,10.30
2023-01-23T07:25:55.125Z,13.90
2023-01-23T07:28:31.713Z,10.10
2023-01-23T07:31:00.724Z,10.90
2023-01-23T07:33:29.202Z,12.30
2023-01-23T07:36:01.010Z,13.90
2023-01-23T07:38:38.306Z,18.00
2023-01-23T07:41:16.731Z,12.10
2023-01-23T07:43:45.627Z,12.40
2023-01-23T07:46:16.877Z,11.00
2023-01-23T07:48:59.307Z,14.10
2023-01-23T07:51:49.292Z,14.80
2023-01-23T07:54:21.364Z,13.80
2023-01-23T07:56:52.719Z,9.90
2023-01-23T07:59:21.447Z,13.40
2023-01-23T08:02:18.791Z,14.10
2023-01-23T08:05:37.748Z,11.90
2023-01-23T08:09:09.761Z,14.70
2023-01-23T08:16:29.802Z,13.60
2023-01-23T08:23:41.154Z,13.70
2023-01-23T08:27:31.066Z,13.00
2023-01-23T08:34:30.153Z,11.50
2023-01-23T08:38:19.797Z,16.50
2023-01-23T08:45:34.850Z,14.10
2023-01-23T08:49:32.591Z,13.20
2023-01-23T08:52:51.211Z,10.60
2023-01-23T08:56:23.720Z,11.20
2023-01-23T09:00:10.777Z,14.00
2023-01-23T09:07:30.768Z,13.90
2023-01-23T09:11:10.763Z,11.30
2023-01-23T09:14:53.400Z,12.60
2023-01-23T09:18:28.822Z,13.00
2023-01-23T09:21:57.711Z,12.40
2023-01-23T09:25:23.695Z,14.20
2023-01-23T09:28:00.122Z,13.30
2023-01-23T09:31:13.266Z,20.20
2023-01-23T09:34:40.186Z,16.10
2023-01-23T09:41:44.757Z,21.20
2023-01-23T09:45:08.744Z,23.30
2023-01-23T09:48:30.805Z,22.50
2023-01-23T09:51:48.434Z,22.50
2023-01-23T09:55:32.765Z,18.50
2023-01-23T09:58:48.526Z,23.70
2023-01-23T10:02:04.952Z,20.20
2023-01-23T10:05:24.459Z,20.90
2023-01-23T10:09:14.742Z,14.60
2023-01-23T10:16:49.580Z,15.00
2023-01-23T10:20:34.696Z,27.00
2023-01-23T10:28:16.214Z,15.90
2023-01-23T10:31:50.831Z,14.50
2023-01-23T10:35:22.641Z,12.90
2023-01-23T10:38:48.859Z,11.10
2023-01-23T10:43:27.902Z,19.20
2023-01-23T10:46:23.121Z,12.40
2023-01-23T10:49:19.226Z,23.40
2023-01-23T10:52:29.242Z,18.80
2023-01-23T10:55:01.608Z,11.00
2023-01-23T10:57:43.945Z,12.70
2023-01-23T11:00:34.217Z,13.10
2023-01-23T11:03:36.014Z,7.10
2023-01-23T11:06:47.055Z,14.00
2023-01-23T11:09:22.118Z,5.10
2023-01-23T11:12:49.802Z,4.50
2023-01-23T11:15:28.687Z,3.60
2023-01-23T11:18:21.697Z,6.20
2023-01-23T11:21:27.260Z,10.20
2023-01-23T11:24:55.315Z,16.30
2023-01-23T11:27:50.784Z,4.70
2023-01-23T11:31:24.951Z,6.50
2023-01-23T11:34:52.748Z,8.20
2023-01-23T11:37:49.744Z,3.90
2023-01-23T11:40:36.087Z,2.80
2023-01-23T11:43:13.677Z,12.90
2023-01-23T11:46:09.833Z,6.90
2023-01-23T11:49:07.671Z,2.60
2023-01-23T11:52:22.134Z,4.20
2023-01-23T11:55:40.709Z,5.30
2023-01-23T11:59:01.823Z,3.80
2023-01-23T12:02:45.673Z,8.50
2023-01-23T12:05:32.145Z,16.30
2023-01-23T12:08:25.813Z,7.00
2023-01-23T12:11:39.719Z,2.70
2023-01-23T12:15:17.750Z,5.10
2023-01-23T12:18:32.020Z,3.10
2023-01-23T12:21:20.149Z,4.20
2023-01-23T12:24:26.762Z,2.30
2023-01-23T12:27:37.154Z,2.10
2023-01-23T12:30:28.054Z,1.30
2023-01-23T12:33:21.436Z,2.40
2023-01-23T12:36:09.008Z,2.60
2023-01-23T12:39:07.747Z,3.10
2023-01-23T12:41:45.049Z,5.70
2023-01-23T12:44:26.861Z,11.10
2023-01-23T12:47:32.905Z,4.00
2023-01-23T12:50:45.084Z,2.80
2023-01-23T12:53:38.932Z,12.70
2023-01-23T12:56:15.710Z,2.70
2023-01-23T12:59:02.515Z,4.90
2023-01-23T13:01:46.541Z,5.10
2023-01-23T13:04:49.336Z,3.00
2023-01-23T13:07:29.324Z,2.50
2023-01-23T13:10:21.546Z,2.90
2023-01-23T13:12:58.088Z,4.70
2023-01-23T13:15:40.394Z,5.30
2023-01-23T13:18:25.514Z,4.50
2023-01-23T13:21:10.210Z,6.10
2023-01-23T13:23:42.494Z,4.90
2023-01-23T13:26:34.734Z,2.90
2023-01-23T13:29:40.840Z,2.90
2023-01-23T13:32:42.599Z,2.30
2023-01-23T13:35:56.060Z,3.80
2023-01-23T13:38:40.867Z,14.00
2023-01-23T13:42:03.556Z,5.00
2023-01-23T13:44:41.789Z,6.20
2023-01-23T14:20:24.774Z,11.80
2023-01-23T14:23:32.373Z,5.50
2023-01-23T14:27:07.466Z,5.10
2023-01-23T14:30:18.093Z,6.30
2023-01-23T14:32:46.501Z,8.60
2023-01-23T14:35:48.730Z,9.70
2023-01-23T14:39:30.809Z,10.70
2023-01-23T14:43:06.296Z,12.90
2023-01-23T14:46:26.388Z,5.40
2023-01-23T14:49:09.802Z,9.00
2023-01-23T14:56:06.805Z,5.20
2023-01-23T14:58:55.477Z,6.40
2023-01-23T15:01:56.523Z,4.20
2023-01-23T15:05:05.657Z,4.20
2023-01-23T15:08:22.121Z,4.20
2023-01-23T15:11:35.787Z,5.50
2023-01-23T15:15:01.751Z,4.90
2023-01-23T15:17:57.310Z,4.20
2023-01-23T15:20:44.261Z,6.20
2023-01-23T15:23:54.168Z,6.20
2023-01-23T15:26:57.907Z,4.00
2023-01-23T15:30:01.131Z,5.70
2023-01-23T15:33:29.347Z,8.00
2023-01-23T15:36:40.484Z,4.10
2023-01-23T15:40:04.906Z,3.40
2023-01-23T15:43:21.813Z,2.70
2023-01-23T15:46:22.971Z,4.80
2023-01-23T15:49:46.778Z,4.70
2023-01-23T15:53:13.753Z,5.90
2023-01-23T15:56:47.000Z,12.40
2023-01-23T16:00:46.330Z,10.10
2023-01-23T16:04:06.580Z,11.40
2023-01-23T16:06:39.146Z,16.30
2023-01-23T16:09:38.788Z,21.00
2023-01-23T16:13:16.848Z,17.90
2023-01-23T16:16:37.246Z,12.50
2023-01-23T16:20:24.746Z,10.80
2023-01-23T16:23:54.799Z,8.40
2023-01-23T16:26:56.936Z,7.70
2023-01-23T16:29:53.709Z,9.40
2023-01-23T16:33:14.786Z,8.90
2023-01-23T16:43:39.784Z,9.00
2023-01-23T16:46:45.787Z,10.60
2023-01-23T16:49:53.646Z,24.00
2023-01-23T16:53:02.836Z,17.40
2023-01-23T16:56:20.790Z,14.70
2023-01-23T16:59:48.627Z,13.50
2023-01-23T17:03:04.781Z,14.90
2023-01-23T17:06:38.204Z,22.50
2023-01-23T17:09:56.025Z,15.70
2023-01-23T17:13:02.629Z,15.30
2023-01-23T17:16:28.637Z,17.80
2023-01-23T17:19:44.700Z,14.20
2023-01-23T17:22:48.611Z,15.50
2023-01-23T17:26:01.113Z,17.50
2023-01-23T17:29:10.645Z,17.00
2023-01-23T17:31:40.431Z,14.10
2023-01-23T17:34:22.825Z,17.10
2023-01-23T17:36:52.892Z,21.10
2023-01-23T17:39:36.341Z,21.60
2023-01-23T17:42:08.396Z,21.70
2023-01-23T17:44:37.375Z,18.00
2023-01-23T17:47:22.688Z,20.30
2023-01-23T17:50:09.864Z,49.00
2023-01-23T17:52:38.744Z,44.20
2023-01-23T17:55:11.099Z,32.80
2023-01-23T17:58:09.762Z,33.90
2023-01-23T18:02:00.878Z,22.50
2023-01-23T18:05:35.750Z,16.10
2023-01-23T18:09:16.792Z,17.20
2023-01-23T18:12:42.767Z,16.40
2023-01-23T18:16:29.820Z,13.40
2023-01-23T18:20:02.801Z,27.80
2023-01-23T18:23:39.766Z,20.20
2023-01-23T18:27:15.778Z,22.70
2023-01-23T18:30:50.831Z,21.50
2023-01-23T18:34:27.935Z,34.00
2023-01-23T18:37:59.723Z,19.00
2023-01-23T18:41:43.816Z,18.50
2023-01-23T18:45:31.994Z,25.70
2023-01-23T18:49:08.963Z,21.50
2023-01-23T18:52:46.759Z,24.10
2023-01-23T18:56:24.173Z,24.00
2023-01-23T19:00:14.739Z,17.80
2023-01-23T19:07:27.881Z,17.90
2023-01-23T19:11:13.466Z,14.50
2023-01-23T19:14:12.798Z,9.60
2023-01-23T19:17:57.690Z,21.40
2023-01-23T19:28:16.816Z,18.00
2023-01-23T19:32:04.145Z,26.50
2023-01-23T19:35:33.741Z,19.40
2023-01-23T19:39:19.423Z,10.70
2023-01-23T19:43:14.022Z,16.10
2023-01-23T19:46:39.830Z,17.00
2023-01-23T20:01:27.179Z,17.40
2023-01-23T20:04:55.794Z,19.10
2023-01-23T20:11:40.835Z,19.50
2023-01-23T20:18:57.756Z,21.30
2023-01-23T20:22:44.704Z,18.40
2023-01-23T20:26:15.791Z,20.90
2023-01-23T20:33:37.842Z,16.60
2023-01-23T20:40:59.586Z,17.90
2023-01-23T20:44:40.866Z,16.80
2023-01-23T20:48:14.688Z,13.30
2023-01-23T20:55:39.309Z,11.30
2023-01-23T20:59:23.794Z,9.10
2023-01-23T21:03:11.696Z,11.40
2023-01-23T21:06:49.774Z,8.30
2023-01-23T21:10:33.836Z,12.40
2023-01-23T21:13:55.231Z,8.80
2023-01-23T21:17:43.867Z,12.80
2023-01-23T21:20:55.629Z,8.60
2023-01-23T21:24:12.867Z,10.00
2023-01-23T21:27:16.369Z,12.20
2023-01-23T21:30:26.533Z,9.30
2023-01-23T21:33:39.145Z,11.20
2023-01-23T21:36:25.312Z,9.60
2023-01-23T21:38:55.512Z,12.60
2023-01-23T21:42:09.827Z,13.40
2023-01-23T21:44:56.752Z,10.40
2023-01-23T21:50:44.729Z,13.70
2023-01-23T21:53:25.935Z,8.60
2023-01-23T21:56:00.988Z,8.50
2023-01-23T21:58:31.550Z,6.40
2023-01-23T22:01:22.406Z,8.30
2023-01-23T22:03:51.132Z,7.10
2023-01-23T22:06:20.301Z,9.40
2023-01-23T22:08:48.574Z,7.60
2023-01-23T22:11:16.897Z,8.70
2023-01-23T22:13:45.062Z,8.70
2023-01-23T22:16:13.317Z,8.10
2023-01-23T22:18:43.344Z,8.50
2023-01-23T22:21:16.366Z,9.30
2023-01-23T22:23:44.265Z,7.30
2023-01-23T22:26:12.404Z,7.70
2023-01-23T22:28:41.195Z,6.50
2023-01-23T22:31:12.157Z,5.00
2023-01-23T22:33:42.236Z,6.60
2023-01-23T22:36:15.014Z,5.40
2023-01-23T22:38:43.251Z,5.50
2023-01-23T22:41:15.082Z,5.90
2023-01-23T22:43:43.347Z,3.70
2023-01-23T22:46:19.665Z,4.50
2023-01-23T22:48:47.685Z,6.20
2023-01-23T22:51:20.236Z,4.30
2023-01-23T22:53:49.339Z,3.90
2023-01-23T22:56:17.167Z,5.00
2023-01-23T22:58:47.833Z,7.70
2023-01-23T23:01:18.161Z,2.90
2023-01-23T23:03:46.658Z,4.50
2023-01-23T23:06:16.565Z,4.00
2023-01-23T23:08:47.717Z,3.50
2023-01-23T23:11:22.838Z,3.80
2023-01-23T23:13:52.206Z,5.30
2023-01-23T23:16:24.762Z,5.80
2023-01-23T23:18:54.782Z,4.10
2023-01-23T23:21:26.035Z,4.70
2023-01-23T23:23:58.215Z,3.90
2023-01-23T23:26:28.649Z,5.50
2023-01-23T23:28:58.652Z,5.00
2023-01-23T23:31:26.744Z,4.80
2023-01-23T23:33:54.946Z,4.20
2023-01-23T23:36:23.707Z,3.30
2023-01-23T23:38:51.994Z,3.50
2023-01-23T23:41:20.190Z,4.60
2023-01-23T23:43:51.607Z,4.00
2023-01-23T23:46:20.046Z,4.80
2023-01-23T23:48:48.241Z,6.40
2023-01-23T23:51:18.549Z,4.20
2023-01-23T23:53:47.536Z,5.40
2023-01-23T23:56:26.255Z,6.70
2023-01-23T23:58:57.403Z,11.10
